createdAt,value
2022-08-22T00:01:56.332Z,3.20
2022-08-22T00:02:49.418Z,2.70
2022-08-22T00:02:52.599Z,2.97
2022-08-22T00:02:53.142Z,2.17
2022-08-22T00:03:00.233Z,2.50
2022-08-22T00:03:16.333Z,3.17
2022-08-22T00:04:36.417Z,3.20
2022-08-22T00:07:08.389Z,2.97
2022-08-22T00:10:01.327Z,3.20
2022-08-22T00:12:34.840Z,3.17
2022-08-22T00:15:03.596Z,3.40
2022-08-22T00:17:25.042Z,2.90
2022-08-22T00:20:07.688Z,2.77
2022-08-22T00:22:34.945Z,2.97
2022-08-22T00:25:25.431Z,2.80
2022-08-22T00:27:54.222Z,3.13
2022-08-22T00:30:18.501Z,3.40
2022-08-22T00:32:52.728Z,2.93
2022-08-22T00:35:29.440Z,3.37
2022-08-22T00:38:02.600Z,3.13
2022-08-22T00:40:53.612Z,3.47
2022-08-22T00:43:43.451Z,2.93
2022-08-22T00:46:22.187Z,3.00
2022-08-22T00:48:55.513Z,3.20
2022-08-22T00:51:42.092Z,3.87
2022-08-22T00:54:31.758Z,3.03
2022-08-22T00:57:10.309Z,3.13
2022-08-22T00:59:43.993Z,3.00
2022-08-22T01:02:29.818Z,3.30
2022-08-22T01:05:04.434Z,2.90
2022-08-22T01:07:48.394Z,3.30
2022-08-22T01:10:42.734Z,3.30
2022-08-22T01:13:38.367Z,3.43
2022-08-22T01:16:20.860Z,2.80
2022-08-22T01:19:12.035Z,3.27
2022-08-22T01:21:51.282Z,3.07
2022-08-22T01:25:02.883Z,3.27
2022-08-22T01:28:02.448Z,3.50
2022-08-22T01:30:45.227Z,3.40
2022-08-22T01:33:41.871Z,3.60
2022-08-22T01:36:29.957Z,3.50
2022-08-22T01:38:57.482Z,3.13
2022-08-22T01:41:49.174Z,3.10
2022-08-22T01:44:19.518Z,3.20
2022-08-22T01:46:47.667Z,3.17
2022-08-22T01:49:27.313Z,3.20
2022-08-22T01:51:59.873Z,3.33
2022-08-22T01:54:27.187Z,3.00
2022-08-22T01:56:49.328Z,3.00
2022-08-22T01:59:20.608Z,3.30
2022-08-22T02:01:49.746Z,3.13
2022-08-22T02:04:20.066Z,3.30
2022-08-22T02:06:59.693Z,3.47
2022-08-22T02:09:34.516Z,3.50
2022-08-22T02:12:02.422Z,3.23
2022-08-22T02:14:32.835Z,3.17
2022-08-22T02:17:13.844Z,3.30
2022-08-22T02:19:40.584Z,2.70
2022-08-22T02:22:18.188Z,3.27
2022-08-22T02:25:09.117Z,3.10
2022-08-22T02:27:43.925Z,2.90
2022-08-22T02:30:13.075Z,3.30
2022-08-22T02:32:51.558Z,3.53
2022-08-22T02:35:12.965Z,3.17
2022-08-22T02:37:47.245Z,3.53
2022-08-22T02:40:27.440Z,2.90
2022-08-22T02:43:01.716Z,3.00
2022-08-22T02:46:01.287Z,3.13
2022-08-22T02:48:48.088Z,2.97
2022-08-22T02:51:20.681Z,3.30
2022-08-22T02:53:56.286Z,3.13
2022-08-22T02:56:27.021Z,3.37
2022-08-22T02:59:13.393Z,3.67
2022-08-22T03:01:45.430Z,3.40
2022-08-22T03:04:31.495Z,3.50
2022-08-22T03:07:11.722Z,2.70
2022-08-22T03:10:00.766Z,2.93
2022-08-22T03:12:38.565Z,2.80
2022-08-22T03:15:12.816Z,2.90
2022-08-22T03:17:54.045Z,3.13
2022-08-22T03:20:35.334Z,3.13
2022-08-22T03:23:04.614Z,3.10
2022-08-22T03:25:33.717Z,2.90
2022-08-22T03:28:03.290Z,3.10
2022-08-22T03:30:40.609Z,3.10
2022-08-22T03:33:14.198Z,3.00
2022-08-22T03:35:42.205Z,3.00
2022-08-22T03:38:33.020Z,3.07
2022-08-22T03:41:33.777Z,3.00
2022-08-22T03:44:19.222Z,2.67
2022-08-22T03:47:01.869Z,2.93
2022-08-22T03:49:52.987Z,3.00
2022-08-22T03:53:03.987Z,2.93
2022-08-22T03:55:40.623Z,2.77
2022-08-22T03:58:05.575Z,2.97
2022-08-22T04:01:19.343Z,2.87
2022-08-22T04:04:11.349Z,3.00
2022-08-22T04:07:19.679Z,3.10
2022-08-22T04:09:57.672Z,3.30
2022-08-22T04:12:34.710Z,2.90
2022-08-22T04:15:08.865Z,3.43
2022-08-22T04:17:39.301Z,3.20
2022-08-22T04:20:26.347Z,2.83
2022-08-22T04:23:27.794Z,3.20
2022-08-22T04:26:28.098Z,2.97
2022-08-22T04:28:57.117Z,3.20
2022-08-22T04:31:27.851Z,2.87
2022-08-22T04:33:55.501Z,2.90
2022-08-22T04:36:27.595Z,3.43
2022-08-22T04:39:00.383Z,2.90
2022-08-22T04:41:32.695Z,2.90
2022-08-22T04:44:10.869Z,3.00
2022-08-22T04:46:49.594Z,3.43
2022-08-22T04:49:14.240Z,3.10
2022-08-22T04:51:40.462Z,2.90
2022-08-22T04:54:22.132Z,3.00
2022-08-22T04:57:11.000Z,3.13
2022-08-22T04:59:34.334Z,3.17
2022-08-22T05:02:06.667Z,2.97
2022-08-22T05:04:50.325Z,3.50
2022-08-22T05:07:23.144Z,3.07
2022-08-22T05:10:11.607Z,3.00
2022-08-22T05:12:37.579Z,3.10
2022-08-22T05:15:14.110Z,3.30
2022-08-22T05:17:42.512Z,3.03
2022-08-22T05:20:08.775Z,3.77
2022-08-22T05:22:40.151Z,3.73
2022-08-22T05:25:10.976Z,4.23
2022-08-22T05:27:37.060Z,3.50
2022-08-22T05:30:13.472Z,3.83
2022-08-22T05:32:50.318Z,4.20
2022-08-22T05:35:12.144Z,3.57
2022-08-22T05:37:44.675Z,3.47
2022-08-22T05:40:07.404Z,3.40
2022-08-22T05:42:34.766Z,3.40
2022-08-22T05:44:56.540Z,3.30
2022-08-22T05:47:23.646Z,3.53
2022-08-22T05:50:06.453Z,3.47
2022-08-22T05:52:50.562Z,3.30
2022-08-22T05:55:29.854Z,3.37
2022-08-22T05:58:27.730Z,3.57
2022-08-22T06:01:11.384Z,3.50
2022-08-22T06:03:58.710Z,3.43
2022-08-22T06:06:21.984Z,3.57
2022-08-22T06:08:53.741Z,4.03
2022-08-22T06:11:22.948Z,3.80
2022-08-22T06:13:52.988Z,3.97
2022-08-22T06:16:22.115Z,3.60
2022-08-22T06:18:44.854Z,3.60
2022-08-22T06:21:21.028Z,3.90
2022-08-22T06:23:49.236Z,3.70
2022-08-22T06:26:20.634Z,3.73
2022-08-22T06:28:55.173Z,3.57
2022-08-22T06:31:22.153Z,3.47
2022-08-22T06:33:46.208Z,3.40
2022-08-22T06:36:33.867Z,3.77
2022-08-22T06:39:16.573Z,3.20
2022-08-22T06:41:48.013Z,3.27
2022-08-22T06:44:13.126Z,3.97
2022-08-22T06:46:38.069Z,3.53
2022-08-22T06:49:01.133Z,3.20
2022-08-22T06:51:26.232Z,3.57
2022-08-22T06:53:51.684Z,3.23
2022-08-22T06:56:23.255Z,3.37
2022-08-22T06:58:48.314Z,3.53
2022-08-22T07:01:14.789Z,3.77
2022-08-22T07:03:40.660Z,3.33
2022-08-22T07:06:03.352Z,3.37
2022-08-22T07:08:26.268Z,3.60
2022-08-22T07:10:56.482Z,3.00
2022-08-22T07:13:19.608Z,3.10
2022-08-22T07:15:42.968Z,3.47
2022-08-22T07:18:08.945Z,3.10
2022-08-22T07:20:35.454Z,3.25
2022-08-22T07:22:59.076Z,3.05
2022-08-22T07:25:21.399Z,3.38
2022-08-22T07:27:55.064Z,3.20
2022-08-22T07:30:27.378Z,2.75
2022-08-22T07:33:17.686Z,3.22
2022-08-22T07:35:53.349Z,3.13
2022-08-22T07:38:20.954Z,3.35
2022-08-22T07:41:03.073Z,3.70
2022-08-22T07:43:49.029Z,2.97
2022-08-22T07:46:35.656Z,2.85
2022-08-22T07:49:22.325Z,2.90
2022-08-22T07:51:52.055Z,3.20
2022-08-22T07:54:21.467Z,2.80
2022-08-22T07:56:57.616Z,3.53
2022-08-22T07:59:20.491Z,3.33
2022-08-22T08:01:50.121Z,3.45
2022-08-22T08:04:17.665Z,3.20
2022-08-22T08:06:40.138Z,3.28
2022-08-22T08:09:02.437Z,3.00
2022-08-22T08:11:28.103Z,2.85
2022-08-22T08:14:03.828Z,3.22
2022-08-22T08:16:30.945Z,2.90
2022-08-22T08:18:56.823Z,3.30
2022-08-22T08:21:30.531Z,2.97
2022-08-22T08:23:54.138Z,3.28
2022-08-22T08:26:20.241Z,3.15
2022-08-22T08:28:46.366Z,3.30
2022-08-22T08:31:31.941Z,3.17
2022-08-22T08:34:06.404Z,2.97
2022-08-22T08:36:39.961Z,3.38
2022-08-22T08:39:34.942Z,3.05
2022-08-22T08:42:29.560Z,2.90
2022-08-22T08:45:24.752Z,2.90
2022-08-22T08:48:15.127Z,2.97
2022-08-22T08:51:09.324Z,3.03
2022-08-22T08:54:09.300Z,3.00
2022-08-22T08:56:56.971Z,2.97
2022-08-22T08:59:44.101Z,3.35
2022-08-22T09:02:23.503Z,2.83
2022-08-22T09:05:26.415Z,2.75
2022-08-22T09:07:58.526Z,2.50
2022-08-22T09:13:18.277Z,2.90
2022-08-22T09:15:56.315Z,2.58
2022-08-22T09:18:57.135Z,2.50
2022-08-22T09:21:43.657Z,3.10
2022-08-22T09:24:42.538Z,2.25
2022-08-22T09:27:12.357Z,2.33
2022-08-22T09:29:59.789Z,2.42
2022-08-22T09:32:46.632Z,2.30
2022-08-22T09:35:26.824Z,2.03
2022-08-22T09:37:57.972Z,2.05
2022-08-22T09:40:29.118Z,2.15
2022-08-22T09:42:53.981Z,3.35
2022-08-22T09:45:34.774Z,2.25
2022-08-22T09:48:26.612Z,2.03
2022-08-22T09:51:20.000Z,2.28
2022-08-22T09:53:57.306Z,2.50
2022-08-22T09:56:51.569Z,2.10
2022-08-22T09:59:27.116Z,2.53
2022-08-22T10:02:14.275Z,2.20
2022-08-22T10:04:51.825Z,2.17
2022-08-22T10:07:32.415Z,1.90
2022-08-22T10:10:06.030Z,2.15
2022-08-22T10:12:36.190Z,2.13
2022-08-22T10:15:15.197Z,2.00
2022-08-22T10:17:43.820Z,2.20
2022-08-22T10:20:14.730Z,2.78
2022-08-22T10:22:47.378Z,2.33
2022-08-22T10:25:36.619Z,2.17
2022-08-22T10:28:42.181Z,1.88
2022-08-22T10:31:27.671Z,1.70
2022-08-22T10:33:55.767Z,2.10
2022-08-22T10:36:29.729Z,1.73
2022-08-22T10:38:54.638Z,1.85
2022-08-22T10:41:37.497Z,1.90
2022-08-22T10:44:19.547Z,1.80
2022-08-22T10:46:50.260Z,1.98
2022-08-22T10:49:35.993Z,2.00
2022-08-22T10:52:16.751Z,2.00
2022-08-22T10:54:56.440Z,2.38
2022-08-22T10:57:27.036Z,1.88
2022-08-22T11:00:29.994Z,1.90
2022-08-22T11:03:15.837Z,2.33
2022-08-22T11:05:50.746Z,1.90
2022-08-22T11:08:57.807Z,2.10
2022-08-22T11:11:40.666Z,2.10
2022-08-22T11:14:05.230Z,2.00
2022-08-22T11:16:43.495Z,1.60
2022-08-22T11:19:23.056Z,1.95
2022-08-22T11:22:04.981Z,2.13
2022-08-22T11:25:02.359Z,2.20
2022-08-22T11:27:59.494Z,1.83
2022-08-22T11:30:31.587Z,1.77
2022-08-22T11:33:32.513Z,1.88
2022-08-22T11:36:26.212Z,2.58
2022-08-22T11:39:02.725Z,2.00
2022-08-22T11:41:32.620Z,2.00
2022-08-22T11:44:03.495Z,2.03
2022-08-22T11:46:30.719Z,1.70
2022-08-22T11:48:55.100Z,2.10
2022-08-22T11:51:39.637Z,2.00
2022-08-22T11:54:14.494Z,2.05
2022-08-22T11:56:45.209Z,1.67
2022-08-22T11:59:30.673Z,1.80
2022-08-22T12:02:02.224Z,2.00
2022-08-22T12:04:37.381Z,1.90
2022-08-22T12:07:18.459Z,1.85
2022-08-22T12:09:52.057Z,2.00
2022-08-22T12:12:20.121Z,2.08
2022-08-22T12:14:49.264Z,1.92
2022-08-22T12:17:55.669Z,2.10
2022-08-22T12:20:45.435Z,1.70
2022-08-22T12:23:43.185Z,2.17
2022-08-22T12:26:22.058Z,2.10
2022-08-22T12:28:52.909Z,2.00
2022-08-22T12:31:29.483Z,2.08
2022-08-22T12:33:56.866Z,1.77
2022-08-22T12:36:45.665Z,1.70
2022-08-22T12:39:49.313Z,1.92
2022-08-22T12:42:40.021Z,2.30
2022-08-22T12:45:16.469Z,2.13
2022-08-22T12:47:56.411Z,1.85
2022-08-22T12:50:36.685Z,2.00
2022-08-22T12:53:25.784Z,2.08
2022-08-22T12:56:01.840Z,2.28
2022-08-22T12:58:51.464Z,2.30
2022-08-22T13:01:14.445Z,1.90
2022-08-22T13:03:46.384Z,2.25
2022-08-22T13:06:36.034Z,2.53
2022-08-22T13:08:57.909Z,2.55
2022-08-22T13:11:23.346Z,2.33
2022-08-22T13:13:57.246Z,2.05
2022-08-22T13:16:20.833Z,2.30
2022-08-22T13:18:54.050Z,2.40
2022-08-22T13:21:18.508Z,2.00
2022-08-22T13:23:46.965Z,2.20
2022-08-22T13:26:31.764Z,1.83
2022-08-22T13:29:42.541Z,2.10
2022-08-22T13:32:01.723Z,2.30
2022-08-22T13:34:43.926Z,2.33
2022-08-22T13:37:11.576Z,2.13
2022-08-22T13:39:37.088Z,1.90
2022-08-22T13:42:01.089Z,2.40
2022-08-22T13:44:28.427Z,2.22
2022-08-22T13:47:13.105Z,2.30
2022-08-22T13:49:35.813Z,2.30
2022-08-22T13:52:38.003Z,2.20
2022-08-22T13:55:27.655Z,2.33
2022-08-22T13:57:57.552Z,2.42
2022-08-22T14:00:29.440Z,2.20
2022-08-22T14:03:05.727Z,2.40
2022-08-22T14:05:33.194Z,1.90
2022-08-22T14:08:12.660Z,1.90
2022-08-22T14:10:38.896Z,2.00
2022-08-22T14:13:00.757Z,2.00
2022-08-22T14:15:26.373Z,1.98
2022-08-22T14:18:03.413Z,2.00
2022-08-22T14:20:33.475Z,2.08
2022-08-22T14:23:03.560Z,1.95
2022-08-22T14:25:28.195Z,2.00
2022-08-22T14:27:49.605Z,2.30
2022-08-22T14:30:24.589Z,12.00
2022-08-22T14:32:54.770Z,1.88
2022-08-22T14:35:37.587Z,2.00
2022-08-22T14:38:17.443Z,1.95
2022-08-22T14:40:40.930Z,2.00
2022-08-22T14:43:15.122Z,2.25
2022-08-22T14:45:53.891Z,2.22
2022-08-22T14:48:30.695Z,2.08
2022-08-22T14:51:01.418Z,1.60
2022-08-22T14:53:30.130Z,1.92
2022-08-22T14:56:03.541Z,2.33
2022-08-22T14:58:28.815Z,1.90
2022-08-22T15:00:52.103Z,1.90
2022-08-22T15:03:24.934Z,1.58
2022-08-22T15:05:51.483Z,1.60
2022-08-22T15:08:21.471Z,1.60
2022-08-22T15:10:46.553Z,1.40
2022-08-22T15:13:10.092Z,1.75
2022-08-22T15:15:53.267Z,1.60
2022-08-22T15:18:34.923Z,1.77
2022-08-22T15:21:18.331Z,1.63
2022-08-22T15:23:46.643Z,1.50
2022-08-22T15:26:17.153Z,1.63
2022-08-22T15:28:44.929Z,1.67
2022-08-22T15:31:17.447Z,1.90
2022-08-22T15:33:45.941Z,1.90
2022-08-22T15:36:19.975Z,1.85
2022-08-22T15:38:48.180Z,1.73
2022-08-22T15:41:22.491Z,2.03
2022-08-22T15:43:52.913Z,2.00
2022-08-22T15:46:23.711Z,2.00
2022-08-22T15:48:57.433Z,1.80
2022-08-22T15:51:46.263Z,1.83
2022-08-22T15:54:24.203Z,2.08
2022-08-22T15:56:52.990Z,2.00
2022-08-22T15:59:23.840Z,1.83
2022-08-22T16:01:52.545Z,1.90
2022-08-22T16:04:15.300Z,1.73
2022-08-22T16:06:54.774Z,2.00
2022-08-22T16:09:43.493Z,1.95
2022-08-22T16:12:12.532Z,2.15
2022-08-22T16:14:33.926Z,1.90
2022-08-22T16:17:24.668Z,1.95
2022-08-22T16:19:46.135Z,3.40
2022-08-22T16:22:09.647Z,2.60
2022-08-22T16:24:34.022Z,1.77
2022-08-22T16:26:58.761Z,1.80
2022-08-22T16:29:41.291Z,1.80
2022-08-22T16:32:08.526Z,2.10
2022-08-22T16:34:36.514Z,1.90
2022-08-22T16:37:18.055Z,1.85
2022-08-22T16:39:58.554Z,1.70
2022-08-22T16:42:26.990Z,1.85
2022-08-22T16:44:51.724Z,1.70
2022-08-22T16:47:15.110Z,2.08
2022-08-22T16:49:56.219Z,1.75
2022-08-22T16:52:20.957Z,1.80
2022-08-22T16:54:46.288Z,1.65
2022-08-22T16:57:29.167Z,1.48
2022-08-22T17:00:09.612Z,1.55
2022-08-22T17:02:46.060Z,1.70
2022-08-22T17:05:29.443Z,1.73
2022-08-22T17:07:51.766Z,1.52
2022-08-22T17:10:41.096Z,1.70
2022-08-22T17:13:26.510Z,1.60
2022-08-22T17:16:02.911Z,2.00
2022-08-22T17:18:54.187Z,1.67
2022-08-22T17:21:39.113Z,1.80
2022-08-22T17:24:09.874Z,2.45
2022-08-22T17:27:14.130Z,1.95
2022-08-22T17:30:03.784Z,1.52
2022-08-22T17:32:40.468Z,2.03
2022-08-22T17:35:13.412Z,1.85
2022-08-22T17:38:01.240Z,1.80
2022-08-22T17:40:41.645Z,2.08
2022-08-22T17:43:26.969Z,1.85
2022-08-22T17:46:07.187Z,1.90
2022-08-22T17:48:46.287Z,2.00
2022-08-22T17:51:15.573Z,1.80
2022-08-22T17:54:01.285Z,2.00
2022-08-22T17:56:33.818Z,1.50
2022-08-22T17:59:06.753Z,2.05
2022-08-22T18:01:48.103Z,1.63
2022-08-22T18:04:19.385Z,2.00
2022-08-22T18:06:56.276Z,1.73
2022-08-22T18:09:25.785Z,2.13
2022-08-22T18:11:54.442Z,1.88
2022-08-22T18:14:26.037Z,1.80
2022-08-22T18:16:50.681Z,1.83
2022-08-22T18:19:24.273Z,1.40
2022-08-22T18:21:54.859Z,1.85
2022-08-22T18:24:43.135Z,2.00
2022-08-22T18:27:43.892Z,2.95
2022-08-22T18:30:11.146Z,3.70
2022-08-22T18:33:10.227Z,3.45
2022-08-22T18:35:42.824Z,3.85
2022-08-22T18:38:26.538Z,3.75
2022-08-22T18:40:57.260Z,2.90
2022-08-22T18:43:25.962Z,2.05
2022-08-22T18:45:47.358Z,1.90
2022-08-22T18:48:09.124Z,1.92
2022-08-22T18:50:34.080Z,1.60
2022-08-22T18:52:57.401Z,2.00
2022-08-22T18:55:28.183Z,1.92
2022-08-22T18:58:14.792Z,1.92
2022-08-22T19:00:52.297Z,2.00
2022-08-22T19:03:50.164Z,2.00
2022-08-22T19:06:47.740Z,1.90
2022-08-22T19:09:28.496Z,2.13
2022-08-22T19:12:09.520Z,2.17
2022-08-22T19:14:56.123Z,2.05
2022-08-22T19:17:20.346Z,2.08
2022-08-22T19:20:28.193Z,2.10
2022-08-22T19:22:51.113Z,1.90
2022-08-22T19:25:12.678Z,1.92
2022-08-22T19:27:44.646Z,1.92
2022-08-22T19:30:48.344Z,2.10
2022-08-22T19:33:34.567Z,1.92
2022-08-22T19:35:56.426Z,2.10
2022-08-22T19:38:57.372Z,1.85
2022-08-22T19:41:39.488Z,2.05
2022-08-22T19:44:00.980Z,2.22
2022-08-22T19:46:36.414Z,1.70
2022-08-22T19:48:58.188Z,1.73
2022-08-22T19:51:19.574Z,2.13
2022-08-22T19:53:56.930Z,1.83
2022-08-22T19:56:27.703Z,2.28
2022-08-22T19:59:28.067Z,2.10
2022-08-22T20:02:01.933Z,2.35
2022-08-22T20:05:02.702Z,2.10
2022-08-22T20:08:02.746Z,2.08
2022-08-22T20:10:36.371Z,2.30
2022-08-22T20:13:10.324Z,2.05
2022-08-22T20:16:02.764Z,2.00
2022-08-22T20:19:03.539Z,2.15
2022-08-22T20:21:58.024Z,1.98
2022-08-22T20:24:29.800Z,2.15
2022-08-22T20:27:13.325Z,2.08
2022-08-22T20:29:39.764Z,1.90
2022-08-22T20:32:02.785Z,2.00
2022-08-22T20:34:28.481Z,1.90
2022-08-22T20:37:04.286Z,2.00
2022-08-22T20:39:46.894Z,1.63
2022-08-22T20:42:14.442Z,2.22
2022-08-22T20:44:45.241Z,2.08
2022-08-22T20:47:22.312Z,2.03
2022-08-22T20:49:48.529Z,2.20
2022-08-22T20:52:20.713Z,2.05
2022-08-22T20:54:42.319Z,2.10
2022-08-22T20:57:16.052Z,2.35
2022-08-22T20:59:49.317Z,2.13
2022-08-22T21:02:14.998Z,1.95
2022-08-22T21:04:50.744Z,2.25
2022-08-22T21:07:25.824Z,2.22
2022-08-22T21:10:22.614Z,2.08
2022-08-22T21:13:01.140Z,2.10
2022-08-22T21:15:35.167Z,2.22
2022-08-22T21:17:56.655Z,2.33
2022-08-22T21:20:22.772Z,2.00
2022-08-22T21:22:44.296Z,2.20
2022-08-22T21:25:05.970Z,2.17
2022-08-22T21:27:33.678Z,2.28
2022-08-22T21:29:56.054Z,2.28
2022-08-22T21:32:32.833Z,2.15
2022-08-22T21:34:54.461Z,1.95
2022-08-22T21:37:47.329Z,2.47
2022-08-22T21:40:18.054Z,2.15
2022-08-22T21:42:42.966Z,2.20
2022-08-22T21:45:42.034Z,2.20
2022-08-22T21:48:22.716Z,2.42
2022-08-22T21:50:44.164Z,2.17
2022-08-22T21:53:12.104Z,2.28
2022-08-22T21:55:39.764Z,2.33
2022-08-22T21:58:34.950Z,1.95
2022-08-22T22:01:21.175Z,2.13
2022-08-22T22:03:46.388Z,2.28
2022-08-22T22:06:09.203Z,2.25
2022-08-22T22:08:31.409Z,2.13
2022-08-22T22:10:56.358Z,2.13
2022-08-22T22:13:19.957Z,2.03
2022-08-22T22:15:47.314Z,2.25
2022-08-22T22:18:09.872Z,2.63
2022-08-22T22:20:31.799Z,2.05
2022-08-22T22:22:54.184Z,2.60
2022-08-22T22:25:38.830Z,2.30
2022-08-22T22:28:00.013Z,2.30
2022-08-22T22:30:21.629Z,2.38
2022-08-22T22:32:43.351Z,2.50
2022-08-22T22:35:09.487Z,2.33
2022-08-22T22:37:36.431Z,2.65
2022-08-22T22:40:07.335Z,2.53
2022-08-22T22:42:29.089Z,2.65
2022-08-22T22:44:50.558Z,2.92
2022-08-22T22:47:12.020Z,2.10
2022-08-22T22:49:33.668Z,2.40
2022-08-22T22:51:55.340Z,2.28
2022-08-22T22:54:17.576Z,2.70
2022-08-22T22:56:39.034Z,2.53
2022-08-22T22:59:12.581Z,2.50
2022-08-22T23:01:35.876Z,2.40
2022-08-22T23:03:59.565Z,2.70
2022-08-22T23:06:29.646Z,2.53
2022-08-22T23:08:51.819Z,2.40
2022-08-22T23:11:15.770Z,2.15
2022-08-22T23:13:39.796Z,2.35
2022-08-22T23:16:14.688Z,1.98
2022-08-22T23:18:36.414Z,2.60
2022-08-22T23:20:57.870Z,2.42
2022-08-22T23:23:19.317Z,2.72
2022-08-22T23:25:40.776Z,2.42
2022-08-22T23:28:02.691Z,2.60
2022-08-22T23:30:24.395Z,2.63
2022-08-22T23:32:45.843Z,2.40
2022-08-22T23:35:08.177Z,2.83
2022-08-22T23:37:29.681Z,2.40
2022-08-22T23:39:51.253Z,2.95
2022-08-22T23:42:14.594Z,2.83
2022-08-22T23:44:38.524Z,2.47
2022-08-22T23:47:00.441Z,2.80
2022-08-22T23:49:22.060Z,2.33
2022-08-22T23:51:44.557Z,2.47
2022-08-22T23:54:06.646Z,2.40
2022-08-22T23:56:37.601Z,2.78
2022-08-22T23:59:00.877Z,2.67
